Time;durP1;ratioP1;P1;durP2;ratioP2;P2;SDS_P1;SDS_P2;PMS_P1;PMS_P2;Temp;Humidity;BMP_temperature;BMP_pressure;BME280_temperature;BME280_humidity;BME280_pressure;Samples;Min_cycle;Max_cycle;Signal;HPM_P1;HPM_P2
2022/06/20 00:02:20;;;;;;;;;;;;;;;16.97;64.17;100865.84;4957738;28;1113;-59
2022/06/20 00:04:46;;;;;;;;;;;;;;;18.22;71.61;100859.00;4957942;28;994;-59
2022/06/20 00:07:12;;;;;;;;;;;;;;;19.52;70.27;100863.28;4957862;28;1028;-60
2022/06/20 00:09:37;;;;;;;;;;;;;;;19.57;62.35;100851.38;4958578;29;1022;-59
2022/06/20 00:12:03;;;;;;;;;;;;;;;17.59;62.19;100850.09;4958184;28;1101;-59
2022/06/20 00:14:28;;;;;;;;;;;;;;;17.21;68.85;100851.53;4958519;28;1065;-59
2022/06/20 00:16:54;;;;;;;;;;;;;;;18.71;72.60;100849.88;4958289;28;1097;-59
2022/06/20 00:19:19;;;;;;;;;;;;;;;19.52;63.65;100851.41;4941263;29;1983;-59
2022/06/20 00:21:45;;;;;;;;;;;;;;;20.00;57.50;100848.72;4958172;28;829;-59
2022/06/20 00:24:10;;;;;;;;;;;;;;;18.24;63.84;100845.75;4957657;28;1436;-59
2022/06/20 00:26:36;;;;;;;;;;;;;;;17.44;65.39;100839.13;4957818;29;1050;-59
2022/06/20 00:29:02;;;;;;;;;;;;;;;16.90;63.37;100840.53;4958214;28;1054;-60
2022/06/20 00:31:28;;;;;;;;;;;;;;;18.03;71.08;100847.78;4957667;28;987;-59
2022/06/20 00:33:53;;;;;;;;;;;;;;;19.30;70.97;100837.00;4957612;28;999;-59
2022/06/20 00:36:19;;;;;;;;;;;;;;;19.91;63.14;100840.25;4954329;29;903;-59
2022/06/20 00:38:51;;;;;;;;;;;;;;;19.14;58.20;100830.03;4957362;28;1906;-59
2022/06/20 00:41:19;;;;;;;;;;;;;;;17.43;63.98;100838.31;4958625;28;847;-60
2022/06/20 00:43:48;;;;;;;;;;;;;;;17.02;65.47;100832.84;4958017;29;1110;-60
2022/06/20 00:46:19;;;;;;;;;;;;;;;18.52;72.39;100829.63;4944454;28;1059;-59
2022/06/20 00:48:46;;;;;;;;;;;;;;;19.29;64.17;100829.03;4958293;28;967;-59
2022/06/20 00:51:16;;;;;;;;;;;;;;;19.98;61.45;100835.22;4955852;28;1018;-60
2022/06/20 00:53:44;;;;;;;;;;;;;;;18.06;63.33;100820.53;4957069;29;928;-59
2022/06/20 00:56:30;;;;;;;;;;;;;;;17.24;65.80;100813.31;4940659;29;1054;-59
2022/06/20 00:58:59;;;;;;;;;;;;;;;18.93;71.59;100826.63;4956993;28;1906;-59
2022/06/20 01:01:27;;;;;;;;;;;;;;;19.92;64.21;100835.56;4939972;29;1090;-60
2022/06/20 01:03:53;;;;;;;;;;;;;;;18.51;59.46;100822.47;4957953;28;1184;-59
2022/06/20 01:06:26;;;;;;;;;;;;;;;17.18;63.32;100822.69;4939942;29;932;-59
2022/06/20 01:08:59;;;;;;;;;;;;;;;17.96;71.72;100817.81;4940042;29;1162;-59
2022/06/20 01:11:26;;;;;;;;;;;;;;;19.49;69.04;100820.56;4940835;29;1066;-60
2022/06/20 01:13:52;;;;;;;;;;;;;;;20.05;59.90;100814.69;4957502;28;1471;-60
2022/06/20 01:16:21;;;;;;;;;;;;;;;17.71;62.43;100805.81;4957063;29;1164;-60
2022/06/20 01:18:46;;;;;;;;;;;;;;;17.03;65.28;100809.78;4956993;28;1971;-60
2022/06/20 01:21:13;;;;;;;;;;;;;;;18.13;69.32;100811.97;4940207;29;1026;-60
2022/06/20 01:23:42;;;;;;;;;;;;;;;19.38;68.01;100813.50;4956723;28;987;-60
2022/06/20 01:26:26;;;;;;;;;;;;;;;18.85;65.33;100805.97;4957478;28;1010;-60
2022/06/20 01:28:53;;;;;;;;;;;;;;;17.31;62.70;100807.56;4957094;28;1054;-60
2022/06/20 01:31:20;;;;;;;;;;;;;;;17.95;71.86;100814.25;4956815;28;900;-62
2022/06/20 01:33:45;;;;;;;;;;;;;;;19.21;70.13;100815.88;4959475;28;1058;-60
2022/06/20 01:38:55;;;;;;;;;;;;;;;19.63;59.10;100811.59;4956835;28;1986;-59
2022/06/20 01:44:04;;;;;;;;;;;;;;;16.99;63.27;100796.88;4952274;28;978;-60
2022/06/20 01:46:31;;;;;;;;;;;;;;;18.29;71.55;100804.44;4957116;28;1018;-60
2022/06/20 01:49:04;;;;;;;;;;;;;;;19.60;69.32;100807.50;4961403;28;999;-59
2022/06/20 01:51:49;;;;;;;;;;;;;;;19.15;60.93;100812.34;4956978;28;1254;-59
2022/06/20 01:54:15;;;;;;;;;;;;;;;17.16;64.11;100805.63;4914469;28;1051;-59
2022/06/20 01:56:41;;;;;;;;;;;;;;;17.56;71.15;100819.59;4959611;28;873;-60
2022/06/20 01:59:09;;;;;;;;;;;;;;;18.92;70.68;100811.19;4960974;28;1903;-59
2022/06/20 02:01:34;;;;;;;;;;;;;;;19.62;61.01;100815.47;4943091;29;1089;-59
2022/06/20 02:04:01;;;;;;;;;;;;;;;19.96;58.73;100817.28;4960282;28;1116;-59
2022/06/20 02:06:26;;;;;;;;;;;;;;;17.67;64.15;100815.72;4959016;28;956;-59
2022/06/20 02:08:53;;;;;;;;;;;;;;;17.37;67.21;100817.41;4942623;29;1530;-59
2022/06/20 02:11:29;;;;;;;;;;;;;;;18.90;70.08;100808.72;4943302;29;1161;-59
2022/06/20 02:13:56;;;;;;;;;;;;;;;19.92;62.81;100807.97;4960168;29;1185;-59
2022/06/20 02:16:21;;;;;;;;;;;;;;;18.07;60.43;100799.34;4943127;29;1115;-59
2022/06/20 02:18:47;;;;;;;;;;;;;;;17.12;64.32;100792.75;4943169;29;1902;-59
2022/06/20 02:21:15;;;;;;;;;;;;;;;18.69;71.53;100797.03;4965917;28;1023;-59
2022/06/20 02:23:41;;;;;;;;;;;;;;;19.80;65.11;100798.16;4943124;28;968;-58
2022/06/20 02:26:06;;;;;;;;;;;;;;;18.45;60.27;100799.66;4942908;29;1145;-59
2022/06/20 02:28:37;;;;;;;;;;;;;;;17.28;64.19;100800.69;4943237;29;1011;-59
2022/06/20 02:31:03;;;;;;;;;;;;;;;17.43;70.12;100799.84;4960286;28;1161;-59
2022/06/20 02:33:28;;;;;;;;;;;;;;;18.82;71.00;100806.56;4960103;29;1089;-59
2022/06/20 02:35:54;;;;;;;;;;;;;;;19.51;62.23;100802.91;4942087;28;919;-60
2022/06/20 02:38:20;;;;;;;;;;;;;;;20.12;59.63;100807.69;4942512;29;1906;-59
2022/06/20 02:40:47;;;;;;;;;;;;;;;18.08;64.59;100810.06;4943187;29;990;-60
2022/06/20 02:43:14;;;;;;;;;;;;;;;17.21;61.48;100804.84;4960201;28;971;-60
2022/06/20 02:45:40;;;;;;;;;;;;;;;18.11;71.68;100806.75;4942478;29;988;-60
2022/06/20 02:48:06;;;;;;;;;;;;;;;19.49;69.75;100806.78;4942434;29;1161;-59
2022/06/20 02:50:32;;;;;;;;;;;;;;;20.03;61.46;100801.19;4959818;29;1127;-59
2022/06/20 02:53:03;;;;;;;;;;;;;;;17.95;60.25;100794.19;4942410;29;1288;-60
2022/06/20 02:55:29;;;;;;;;;;;;;;;17.09;63.78;100789.44;4942272;29;1153;-59
2022/06/20 02:57:55;;;;;;;;;;;;;;;18.50;71.96;100796.06;4942614;29;1959;-59
2022/06/20 03:00:28;;;;;;;;;;;;;;;19.55;64.54;100790.19;4942230;29;1221;-60
2022/06/20 03:02:57;;;;;;;;;;;;;;;20.04;56.78;100793.75;4942950;29;982;-60
2022/06/20 03:05:23;;;;;;;;;;;;;;;18.25;63.05;100779.41;4941867;29;1407;-59
2022/06/20 03:07:49;;;;;;;;;;;;;;;17.46;64.89;100792.97;4959162;28;1039;-60
2022/06/20 03:10:15;;;;;;;;;;;;;;;17.19;65.38;100798.78;4959474;28;1141;-59
2022/06/20 03:12:40;;;;;;;;;;;;;;;18.44;71.82;100789.78;4958157;28;983;-59
2022/06/20 03:15:06;;;;;;;;;;;;;;;19.64;68.29;100793.91;4958748;29;983;-60
2022/06/20 03:17:31;;;;;;;;;;;;;;;20.06;60.20;100789.53;4959440;28;1193;-57
2022/06/20 03:19:58;;;;;;;;;;;;;;;18.28;58.39;100780.78;4959461;28;1910;-58
2022/06/20 03:22:33;;;;;;;;;;;;;;;17.19;63.68;100783.09;4941361;29;1030;-58
2022/06/20 03:24:59;;;;;;;;;;;;;;;18.30;71.90;100789.59;4941827;29;1027;-57
2022/06/20 03:27:28;;;;;;;;;;;;;;;19.57;66.53;100783.25;4942158;29;1173;-57
2022/06/20 03:29:55;;;;;;;;;;;;;;;20.05;57.97;100787.94;4958904;28;1061;-57
2022/06/20 03:32:22;;;;;;;;;;;;;;;17.90;63.19;100785.91;4959123;28;1150;-57
2022/06/20 03:34:47;;;;;;;;;;;;;;;17.21;65.04;100791.91;4959210;29;1050;-57
2022/06/20 03:37:12;;;;;;;;;;;;;;;17.38;68.19;100791.59;4925047;29;2244;-57
2022/06/20 03:39:38;;;;;;;;;;;;;;;18.62;71.42;100791.84;4958733;28;1914;-57
2022/06/20 03:42:04;;;;;;;;;;;;;;;19.85;67.75;100785.44;4959207;28;1101;-56
2022/06/20 03:44:49;;;;;;;;;;;;;;;17.82;62.06;100778.25;4961304;28;1276;-56
2022/06/20 03:47:29;;;;;;;;;;;;;;;16.92;65.41;100777.94;4958590;29;1281;-55
2022/06/20 03:50:00;;;;;;;;;;;;;;;18.53;72.57;100776.22;4941712;29;1189;-56
2022/06/20 03:52:39;;;;;;;;;;;;;;;19.38;64.64;100777.66;4937649;29;1098;-54
2022/06/20 03:55:11;;;;;;;;;;;;;;;18.93;65.54;100785.28;4944996;29;1114;-57
2022/06/20 03:57:39;;;;;;;;;;;;;;;17.53;62.08;100787.13;4939509;29;995;-57
2022/06/20 04:00:11;;;;;;;;;;;;;;;17.74;70.98;100780.47;4940837;29;1910;-56
2022/06/20 04:02:45;;;;;;;;;;;;;;;19.18;71.80;100778.72;4938563;29;1035;-55
2022/06/20 04:05:19;;;;;;;;;;;;;;;18.41;63.53;100774.66;4934385;29;1686;-54
2022/06/20 04:08:01;;;;;;;;;;;;;;;17.29;64.80;100779.50;4938451;29;995;-57
2022/06/20 04:13:20;;;;;;;;;;;;;;;18.01;71.50;100792.22;4933529;29;991;-56
2022/06/20 04:15:48;;;;;;;;;;;;;;;19.29;71.83;100779.41;4937650;29;1162;-55
2022/06/20 04:18:27;;;;;;;;;;;;;;;19.89;64.95;100780.97;4939277;29;1907;-56
2022/06/20 04:21:08;;;;;;;;;;;;;;;18.39;60.09;100770.53;4937474;29;1161;-56
2022/06/20 04:23:39;;;;;;;;;;;;;;;17.05;63.37;100774.59;4939115;29;1006;-56
2022/06/20 04:26:04;;;;;;;;;;;;;;;18.60;71.38;100779.47;4934783;29;1346;-56
2022/06/20 04:28:33;;;;;;;;;;;;;;;19.68;64.53;100794.97;4938377;29;1055;-56
2022/06/20 04:31:10;;;;;;;;;;;;;;;20.10;57.19;100779.56;4939163;29;960;-56
2022/06/20 04:33:43;;;;;;;;;;;;;;;17.39;60.55;100779.50;4937693;29;979;-55
2022/06/20 04:36:11;;;;;;;;;;;;;;;17.76;69.53;100783.75;4936773;29;1193;-55
2022/06/20 04:38:40;;;;;;;;;;;;;;;19.49;67.02;100790.22;4938981;29;1918;-53
2022/06/20 04:41:13;;;;;;;;;;;;;;;19.45;59.87;100791.13;4938553;29;1122;-51
2022/06/20 04:43:41;;;;;;;;;;;;;;;17.29;61.62;100787.75;4937131;29;1055;-51
2022/06/20 04:46:25;;;;;;;;;;;;;;;17.61;70.78;100789.31;4938806;29;1146;-52
2022/06/20 04:48:51;;;;;;;;;;;;;;;19.26;67.42;100791.03;4937692;29;976;-53
2022/06/20 04:51:17;;;;;;;;;;;;;;;19.84;58.89;100779.09;4946326;28;1173;-56
2022/06/20 04:53:44;;;;;;;;;;;;;;;19.44;57.97;100784.75;4957403;28;1022;-54
2022/06/20 04:56:10;;;;;;;;;;;;;;;17.55;63.29;100777.50;4957414;28;947;-52
2022/06/20 04:58:39;;;;;;;;;;;;;;;17.43;67.30;100772.34;4960238;28;1915;-55
2022/06/20 05:01:05;;;;;;;;;;;;;;;19.00;68.62;100774.75;4943502;29;1308;-56
2022/06/20 05:03:42;;;;;;;;;;;;;;;19.08;63.36;100773.28;4955730;28;1694;-54
2022/06/20 05:06:10;;;;;;;;;;;;;;;17.14;61.30;100779.53;4938706;28;959;-53
2022/06/20 05:08:37;;;;;;;;;;;;;;;18.08;70.65;100781.72;4960494;28;1157;-55
2022/06/20 05:11:16;;;;;;;;;;;;;;;19.47;67.17;100777.84;4943850;28;1067;-54
2022/06/20 05:13:52;;;;;;;;;;;;;;;19.97;58.38;100781.13;4946955;28;1265;-54
2022/06/20 05:16:25;;;;;;;;;;;;;;;17.35;60.60;100775.66;4943194;29;1138;-53
2022/06/20 05:18:52;;;;;;;;;;;;;;;16.87;64.45;100775.13;4944359;28;1910;-54
2022/06/20 05:21:23;;;;;;;;;;;;;;;18.31;72.18;100777.44;4937867;29;961;-54
2022/06/20 05:23:49;;;;;;;;;;;;;;;19.27;63.85;100776.13;4932586;28;1177;-55
2022/06/20 05:26:17;;;;;;;;;;;;;;;19.87;58.75;100780.44;4943300;29;1118;-55
2022/06/20 05:28:42;;;;;;;;;;;;;;;18.14;64.66;100769.56;4940227;29;1374;-55
2022/06/20 05:31:08;;;;;;;;;;;;;;;17.06;61.58;100773.50;4945036;28;1232;-51
2022/06/20 05:33:38;;;;;;;;;;;;;;;18.21;70.97;100770.09;4939945;29;957;-54
2022/06/20 05:36:10;;;;;;;;;;;;;;;19.63;67.25;100781.25;4959364;28;1487;-49
2022/06/20 05:38:36;;;;;;;;;;;;;;;18.01;61.41;100776.53;4965236;28;1902;-54
2022/06/20 05:41:04;;;;;;;;;;;;;;;16.99;63.07;100783.16;4944128;29;1023;-53
2022/06/20 05:43:29;;;;;;;;;;;;;;;18.35;71.91;100781.28;4960536;28;1153;-54
2022/06/20 05:46:01;;;;;;;;;;;;;;;19.42;63.65;100786.16;4960932;29;999;-51
2022/06/20 05:48:30;;;;;;;;;;;;;;;19.92;56.25;100780.38;4961123;28;1122;-53
2022/06/20 05:50:59;;;;;;;;;;;;;;;18.62;60.99;100778.06;4941115;29;1155;-55
2022/06/20 05:53:26;;;;;;;;;;;;;;;17.51;65.02;100773.69;4964882;28;1138;-54
2022/06/20 05:55:53;;;;;;;;;;;;;;;16.98;63.93;100779.56;4957746;28;1605;-53
2022/06/20 05:58:20;;;;;;;;;;;;;;;18.69;60.69;100774.16;4941556;28;1985;-55
2022/06/20 06:00:45;;;;;;;;;;;;;;;18.74;59.80;100776.88;4955490;28;1255;-55
2022/06/20 06:03:18;;;;;;;;;;;;;;;18.71;59.36;100767.25;4953603;28;1220;-58
2022/06/20 06:05:48;;;;;;;;;;;;;;;18.65;58.70;100771.16;4966034;28;1229;-57
2022/06/20 06:08:40;;;;;;;;;;;;;;;18.60;58.35;100769.25;4950050;28;1309;-57
2022/06/20 06:11:05;;;;;;;;;;;;;;;18.59;58.18;100766.78;4959054;28;1246;-56
2022/06/20 06:13:49;;;;;;;;;;;;;;;18.55;58.29;100762.97;4971678;28;1035;-58
2022/06/20 06:19:05;;;;;;;;;;;;;;;18.47;57.75;100773.50;4964378;28;1918;-56
2022/06/20 06:21:30;;;;;;;;;;;;;;;18.40;57.66;100761.97;4966023;28;1185;-55
2022/06/20 06:23:56;;;;;;;;;;;;;;;18.40;57.52;100758.41;4942499;28;1082;-55
2022/06/20 06:26:21;;;;;;;;;;;;;;;18.39;57.33;100763.09;4961027;28;955;-56
2022/06/20 06:28:47;;;;;;;;;;;;;;;18.36;57.11;100760.91;4959696;28;1240;-56
2022/06/20 06:31:23;;;;;;;;;;;;;;;18.29;57.20;100758.47;4974817;28;1275;-57
2022/06/20 06:33:53;;;;;;;;;;;;;;;18.26;57.24;100753.53;4957311;28;986;-55
2022/06/20 06:36:23;;;;;;;;;;;;;;;18.20;57.12;100753.84;4942850;29;1078;-54
2022/06/20 06:38:57;;;;;;;;;;;;;;;18.15;57.15;100742.91;4960654;28;1906;-51
2022/06/20 06:41:23;;;;;;;;;;;;;;;18.09;57.19;100745.66;4942609;29;1106;-53
2022/06/20 06:43:51;;;;;;;;;;;;;;;18.06;57.06;100749.00;4941585;29;1233;-55
2022/06/20 06:46:41;;;;;;;;;;;;;;;18.05;56.88;100739.09;4942667;29;1090;-53
2022/06/20 06:49:14;;;;;;;;;;;;;;;18.08;57.43;100738.50;4948126;28;1282;-53
2022/06/20 06:51:57;;;;;;;;;;;;;;;18.06;57.58;100734.41;4965266;28;1183;-54
2022/06/20 06:54:30;;;;;;;;;;;;;;;18.04;57.50;100731.94;4970132;28;1240;-54
2022/06/20 06:57:17;;;;;;;;;;;;;;;17.99;57.50;100734.72;4955010;28;1252;-53
2022/06/20 06:59:44;;;;;;;;;;;;;;;18.00;57.10;100730.03;4952248;28;1898;-55
2022/06/20 07:02:12;;;;;;;;;;;;;;;18.03;56.96;100730.28;4937384;28;1420;-53
2022/06/20 07:04:43;;;;;;;;;;;;;;;17.95;57.02;100719.91;4974415;28;1300;-53
2022/06/20 07:07:14;;;;;;;;;;;;;;;17.90;56.86;100711.63;4953452;28;1023;-54
2022/06/20 07:09:41;;;;;;;;;;;;;;;17.84;57.08;100715.50;4966977;28;1369;-54
2022/06/20 07:12:06;;;;;;;;;;;;;;;17.81;56.98;100713.34;4958269;28;1549;-53
2022/06/20 07:14:37;;;;;;;;;;;;;;;17.76;56.91;100711.44;4952423;28;1220;-57
2022/06/20 07:17:02;;;;;;;;;;;;;;;17.75;56.94;100710.63;4938831;29;1414;-56
2022/06/20 07:19:28;;;;;;;;;;;;;;;17.72;56.98;100705.66;4955857;28;1915;-56
2022/06/20 07:21:53;;;;;;;;;;;;;;;17.71;57.28;100704.03;4938321;29;1138;-52
2022/06/20 07:24:23;;;;;;;;;;;;;;;17.77;58.21;100705.66;4942232;29;984;-53
2022/06/20 07:26:52;;;;;;;;;;;;;;;17.84;58.58;100710.00;4953098;29;1568;-53
2022/06/20 07:29:22;;;;;;;;;;;;;;;17.69;58.08;100711.75;4952724;28;1288;-55
2022/06/20 07:31:56;;;;;;;;;;;;;;;17.66;57.55;100708.75;4940089;28;1102;-53
2022/06/20 07:34:22;;;;;;;;;;;;;;;17.56;57.26;100701.38;4940075;29;1006;-56
2022/06/20 07:36:55;;;;;;;;;;;;;;;17.55;57.26;100699.72;4940994;28;949;-58
2022/06/20 07:39:25;;;;;;;;;;;;;;;17.51;57.22;100698.63;4960914;28;1975;-55
2022/06/20 07:41:51;;;;;;;;;;;;;;;17.51;56.95;100706.88;4956971;28;952;-54
2022/06/20 07:44:22;;;;;;;;;;;;;;;17.46;56.90;100696.75;4939838;29;999;-55
2022/06/20 07:46:57;;;;;;;;;;;;;;;17.42;56.83;100698.41;4952651;29;1670;-56
2022/06/20 07:49:36;;;;;;;;;;;;;;;17.41;56.81;100699.50;4937715;28;1287;-55
2022/06/20 07:52:04;;;;;;;;;;;;;;;17.39;56.96;100693.44;4956421;28;1200;-56
2022/06/20 07:54:31;;;;;;;;;;;;;;;17.31;56.86;100694.88;4940115;29;1055;-55
2022/06/20 07:57:11;;;;;;;;;;;;;;;17.33;56.93;100689.91;4947389;28;1070;-56
2022/06/20 07:59:46;;;;;;;;;;;;;;;17.37;57.18;100685.50;4946349;29;1910;-54
2022/06/20 08:02:30;;;;;;;;;;;;;;;17.37;57.17;100688.22;4955483;28;1118;-53
2022/06/20 08:04:56;;;;;;;;;;;;;;;17.32;57.15;100680.03;4964205;28;1000;-49
2022/06/20 08:07:24;;;;;;;;;;;;;;;17.29;57.36;100691.56;4957060;28;1023;-56
2022/06/20 08:09:59;;;;;;;;;;;;;;;17.29;57.10;100699.81;4939877;28;1058;-56
2022/06/20 08:12:27;;;;;;;;;;;;;;;17.24;56.86;100686.09;4960401;28;1047;-54
2022/06/20 08:15:08;;;;;;;;;;;;;;;17.26;57.08;100686.63;4939784;29;970;-56
2022/06/20 08:17:33;;;;;;;;;;;;;;;18.12;60.74;100695.56;4962619;28;1134;-52
2022/06/20 08:19:59;;;;;;;;;;;;;;;18.63;61.37;100686.09;4960066;28;1910;-55
2022/06/20 08:22:43;;;;;;;;;;;;;;;18.27;60.16;100685.53;4956691;29;1030;-54
2022/06/20 08:25:10;;;;;;;;;;;;;;;18.03;59.16;100686.25;4952065;28;1007;-54
2022/06/20 08:27:41;;;;;;;;;;;;;;;17.88;58.40;100672.56;4939682;28;1054;-55
2022/06/20 08:30:10;;;;;;;;;;;;;;;17.79;58.29;100667.69;4942312;28;1036;-52
2022/06/20 08:32:44;;;;;;;;;;;;;;;17.78;57.99;100674.31;4953418;28;1018;-54
2022/06/20 08:35:21;;;;;;;;;;;;;;;17.72;57.67;100675.41;4959312;28;1134;-54
2022/06/20 08:37:51;;;;;;;;;;;;;;;17.67;57.38;100667.22;4953496;29;1605;-51
2022/06/20 08:40:20;;;;;;;;;;;;;;;17.67;57.36;100669.13;4934341;29;1907;-52
2022/06/20 08:42:54;;;;;;;;;;;;;;;17.63;57.27;100668.88;4968606;28;1179;-52
2022/06/20 08:45:26;;;;;;;;;;;;;;;17.51;57.21;100654.66;4963351;28;1190;-51
2022/06/20 08:47:57;;;;;;;;;;;;;;;17.51;57.08;100657.41;4955014;28;1075;-53
2022/06/20 08:50:29;;;;;;;;;;;;;;;17.48;57.17;100666.22;4952402;28;1150;-53
2022/06/20 08:53:05;;;;;;;;;;;;;;;17.44;56.99;100669.50;4969796;28;1086;-51
2022/06/20 08:55:49;;;;;;;;;;;;;;;17.40;57.05;100662.13;4953323;28;1154;-52
2022/06/20 08:58:27;;;;;;;;;;;;;;;17.38;56.84;100664.34;4970340;28;1918;-52
2022/06/20 09:01:12;;;;;;;;;;;;;;;17.26;56.90;100651.75;4951143;28;1382;-53
2022/06/20 09:03:56;;;;;;;;;;;;;;;17.31;56.98;100659.13;4953029;28;1225;-53
2022/06/20 09:06:40;;;;;;;;;;;;;;;17.27;57.11;100652.56;4955528;29;1454;-49
2022/06/20 09:09:09;;;;;;;;;;;;;;;17.22;56.94;100652.56;4955434;28;1391;-54
2022/06/20 09:11:43;;;;;;;;;;;;;;;17.21;57.01;100654.50;4960045;28;978;-53
2022/06/20 09:14:26;;;;;;;;;;;;;;;17.28;57.26;100655.03;4960358;28;1105;-52
2022/06/20 09:16:54;;;;;;;;;;;;;;;17.23;57.14;100640.47;4941497;29;1704;-54
2022/06/20 09:19:24;;;;;;;;;;;;;;;17.22;57.08;100638.84;4961376;28;1988;-51
2022/06/20 09:22:03;;;;;;;;;;;;;;;17.17;56.99;100633.38;4944180;29;1086;-54
2022/06/20 09:24:31;;;;;;;;;;;;;;;17.79;59.96;100639.34;4943110;29;900;-53
2022/06/20 09:26:57;;;;;;;;;;;;;;;18.59;61.31;100651.13;4961592;28;1042;-53
2022/06/20 09:29:23;;;;;;;;;;;;;;;18.17;60.33;100636.09;4961061;28;975;-52
2022/06/20 09:32:06;;;;;;;;;;;;;;;17.99;59.46;100652.16;4961620;29;944;-53
2022/06/20 09:34:40;;;;;;;;;;;;;;;17.86;58.62;100641.78;4947431;28;1074;-53
2022/06/20 09:37:12;;;;;;;;;;;;;;;17.76;58.10;100645.44;4945048;28;1232;-51
2022/06/20 09:39:40;;;;;;;;;;;;;;;17.71;57.57;100640.78;4960863;28;1977;-52
2022/06/20 09:42:09;;;;;;;;;;;;;;;17.62;57.76;100637.00;4961532;28;1047;-52
2022/06/20 09:44:55;;;;;;;;;;;;;;;17.57;57.33;100631.50;4953923;28;1014;-51
2022/06/20 09:47:41;;;;;;;;;;;;;;;17.54;57.49;100635.66;4931192;29;1218;-52
2022/06/20 09:50:12;;;;;;;;;;;;;;;17.51;57.36;100630.72;4959727;28;1566;-53
2022/06/20 09:52:56;;;;;;;;;;;;;;;17.42;57.40;100619.50;4967512;28;1089;-54
2022/06/20 09:55:25;;;;;;;;;;;;;;;17.43;57.33;100626.66;4969579;28;1260;-55
2022/06/20 09:58:22;;;;;;;;;;;;;;;17.45;57.63;100629.13;4956117;28;975;-55
2022/06/20 10:00:48;;;;;;;;;;;;;;;17.39;57.30;100622.81;4928333;28;1225;-54
2022/06/20 10:03:20;;;;;;;;;;;;;;;17.35;57.36;100618.16;4960206;28;1256;-52
2022/06/20 10:05:56;;;;;;;;;;;;;;;17.30;57.21;100619.00;4960138;28;1010;-54
2022/06/20 10:08:40;;;;;;;;;;;;;;;17.34;57.14;100625.59;4955282;28;1153;-55
2022/06/20 10:11:12;;;;;;;;;;;;;;;17.29;57.04;100622.84;4967405;28;1358;-55
2022/06/20 10:13:39;;;;;;;;;;;;;;;17.26;57.05;100624.28;4960059;28;920;-55
2022/06/20 10:16:11;;;;;;;;;;;;;;;17.28;57.25;100632.22;4942623;29;983;-55
2022/06/20 10:18:46;;;;;;;;;;;;;;;17.25;57.14;100616.28;4962047;28;1934;-55
2022/06/20 10:21:14;;;;;;;;;;;;;;;17.47;58.91;100623.34;4956505;28;2505;-54
2022/06/20 10:23:59;;;;;;;;;;;;;;;18.37;61.22;100627.66;4960062;28;2019;-55
2022/06/20 10:26:30;;;;;;;;;;;;;;;18.34;60.86;100624.66;4958371;28;995;-55
2022/06/20 10:29:06;;;;;;;;;;;;;;;18.07;59.66;100626.81;4952910;28;1042;-54
2022/06/20 10:31:31;;;;;;;;;;;;;;;17.90;59.00;100623.63;4942691;28;1228;-56
2022/06/20 10:34:00;;;;;;;;;;;;;;;17.81;58.55;100622.56;4964879;28;1181;-55
2022/06/20 10:36:33;;;;;;;;;;;;;;;17.76;58.16;100623.44;4967578;28;1035;-56
2022/06/20 10:38:58;;;;;;;;;;;;;;;17.68;58.00;100622.09;4959729;28;1969;-56
2022/06/20 10:41:25;;;;;;;;;;;;;;;17.60;57.70;100614.47;4974049;28;1142;-55
2022/06/20 10:43:51;;;;;;;;;;;;;;;17.62;57.23;100620.50;4948271;28;1268;-55
2022/06/20 10:46:29;;;;;;;;;;;;;;;17.57;57.23;100612.25;4966310;28;1221;-56
2022/06/20 10:49:00;;;;;;;;;;;;;;;17.51;57.48;100607.91;4950815;28;1075;-56
2022/06/20 10:51:47;;;;;;;;;;;;;;;17.45;57.33;100605.19;4970736;28;1268;-55
2022/06/20 10:54:32;;;;;;;;;;;;;;;17.43;57.35;100603.81;4942894;28;1395;-53
2022/06/20 10:57:16;;;;;;;;;;;;;;;17.41;57.17;100606.06;4963180;28;1301;-56
2022/06/20 10:59:54;;;;;;;;;;;;;;;17.41;57.14;100609.59;4962453;28;1975;-56
2022/06/20 11:02:38;;;;;;;;;;;;;;;17.36;56.93;100608.81;4963121;28;1038;-54
2022/06/20 11:05:16;;;;;;;;;;;;;;;17.33;57.13;100601.94;4958418;28;1211;-55
2022/06/20 11:07:41;;;;;;;;;;;;;;;17.39;56.98;100602.75;4954745;28;982;-58
2022/06/20 11:10:13;;;;;;;;;;;;;;;17.38;56.86;100601.13;4959404;29;1345;-61
2022/06/20 11:12:38;;;;;;;;;;;;;;;17.89;59.95;100600.81;4956270;29;1030;-61
2022/06/20 11:15:10;;;;;;;;;;;;;;;18.56;60.93;100611.22;4957341;28;1252;-59
2022/06/20 11:17:49;;;;;;;;;;;;;;;18.24;59.55;100603.56;4955201;28;1191;-59
2022/06/20 11:20:22;;;;;;;;;;;;;;;18.06;58.69;100605.06;4941276;29;1961;-59
2022/06/20 11:22:55;;;;;;;;;;;;;;;17.95;58.05;100596.91;4967006;28;1243;-58
2022/06/20 11:25:30;;;;;;;;;;;;;;;17.84;57.54;100600.81;4954806;28;1220;-58
2022/06/20 11:28:36;;;;;;;;;;;;;;;17.81;57.18;100601.41;4970357;28;1157;-59
2022/06/20 11:31:06;;;;;;;;;;;;;;;17.75;57.17;100597.88;4879336;29;1226;-59
2022/06/20 11:36:27;;;;;;;;;;;;;;;17.64;56.69;100584.47;4934464;28;1101;-59
2022/06/20 11:39:07;;;;;;;;;;;;;;;17.58;56.72;100592.72;4960750;28;1915;-59
2022/06/20 11:41:48;;;;;;;;;;;;;;;17.57;56.74;100587.53;4941055;29;1391;-59
2022/06/20 11:44:33;;;;;;;;;;;;;;;17.53;56.71;100589.19;4940077;29;1152;-62
2022/06/20 11:47:04;;;;;;;;;;;;;;;17.50;56.43;100593.38;4952253;28;858;-61
2022/06/20 11:49:30;;;;;;;;;;;;;;;17.50;56.76;100587.03;4957419;29;1018;-60
2022/06/20 11:52:21;;;;;;;;;;;;;;;17.51;56.83;100578.50;4957136;29;988;-60
2022/06/20 11:54:50;;;;;;;;;;;;;;;17.48;56.53;100581.81;4927208;28;1144;-59
2022/06/20 11:57:27;;;;;;;;;;;;;;;17.45;56.48;100588.69;4958092;29;1019;-60
2022/06/20 11:59:53;;;;;;;;;;;;;;;17.41;56.39;100586.81;4957932;28;1910;-58
2022/06/20 12:02:18;;;;;;;;;;;;;;;18.01;59.64;100592.19;4958562;28;1006;-61
2022/06/20 12:04:53;;;;;;;;;;;;;;;18.75;60.59;100581.00;4957431;28;995;-60
2022/06/20 12:07:55;;;;;;;;;;;;;;;18.43;59.81;100590.72;4956408;28;2168;-62
2022/06/20 12:10:39;;;;;;;;;;;;;;;18.15;58.48;100578.59;4947332;28;1185;-60
2022/06/20 12:13:10;;;;;;;;;;;;;;;18.04;57.79;100580.59;4937209;29;1023;-58
2022/06/20 12:15:43;;;;;;;;;;;;;;;17.97;57.31;100580.13;4952422;28;1197;-61
2022/06/20 12:18:13;;;;;;;;;;;;;;;17.90;57.12;100574.09;4939407;29;1146;-61
2022/06/20 12:23:48;;;;;;;;;;;;;;;17.78;56.72;100571.69;4956858;28;1204;-61
2022/06/20 12:26:29;;;;;;;;;;;;;;;17.73;56.70;100575.31;4938543;28;1421;-59
2022/06/20 12:28:55;;;;;;;;;;;;;;;17.68;56.37;100572.59;4944440;28;1014;-59
2022/06/20 12:31:30;;;;;;;;;;;;;;;17.64;56.60;100568.78;4940706;29;999;-60
2022/06/20 12:34:15;;;;;;;;;;;;;;;17.60;56.22;100570.47;4957092;29;899;-60
2022/06/20 12:36:59;;;;;;;;;;;;;;;17.56;56.39;100561.97;4954910;28;939;-59
2022/06/20 12:39:53;;;;;;;;;;;;;;;17.55;56.42;100563.06;4957073;28;1914;-57
2022/06/20 12:42:31;;;;;;;;;;;;;;;17.50;56.22;100573.28;4905197;29;1050;-60
2022/06/20 12:44:59;;;;;;;;;;;;;;;17.50;56.31;100559.53;4956209;28;1389;-60
2022/06/20 12:47:45;;;;;;;;;;;;;;;17.44;56.13;100556.81;4955114;28;1569;-60
2022/06/20 12:50:10;;;;;;;;;;;;;;;17.47;56.33;100551.88;4916030;29;1163;-59
2022/06/20 12:52:49;;;;;;;;;;;;;;;17.42;56.31;100550.78;4960413;28;1216;-59
2022/06/20 12:55:17;;;;;;;;;;;;;;;17.36;56.15;100551.94;4939170;29;956;-58
2022/06/20 12:57:46;;;;;;;;;;;;;;;17.44;57.08;100551.31;4959526;28;975;-62
2022/06/20 13:00:30;;;;;;;;;;;;;;;18.34;59.81;100547.59;4954265;28;1918;-60
2022/06/20 13:02:55;;;;;;;;;;;;;;;18.51;59.68;100547.97;4955715;28;1050;-60
2022/06/20 13:05:34;;;;;;;;;;;;;;;18.20;59.09;100552.94;4956515;28;968;-60
2022/06/20 13:08:05;;;;;;;;;;;;;;;18.05;58.01;100540.97;4935152;29;1011;-60
2022/06/20 13:10:32;;;;;;;;;;;;;;;17.94;57.79;100533.94;4957703;28;1125;-60
2022/06/20 13:13:05;;;;;;;;;;;;;;;17.89;57.23;100531.19;4957613;28;1172;-61
2022/06/20 13:15:37;;;;;;;;;;;;;;;17.82;56.84;100528.75;4963934;28;987;-61
2022/06/20 13:18:15;;;;;;;;;;;;;;;17.76;56.82;100528.00;4953146;29;1074;-59
2022/06/20 13:20:59;;;;;;;;;;;;;;;17.71;56.69;100519.78;4940353;28;1902;-60
2022/06/20 13:23:30;;;;;;;;;;;;;;;17.65;56.58;100520.13;4932337;28;1161;-60
2022/06/20 13:26:10;;;;;;;;;;;;;;;17.60;56.76;100512.75;4967263;28;1113;-60
2022/06/20 13:28:42;;;;;;;;;;;;;;;17.56;56.39;100503.44;4948901;28;1225;-58